Delta Cathryn — WDE9621 — position and weather

sailwx.info

Track history (hours):
 
Tides and Currents Weather Stations Pressure Air Temp Water Temp Dewpoint Dewpoint Depression Visibility Wind Speed Wind Dir Waves Ship Positions

Delta Cathryn

Owner: BAYDELTA MARITIME, SAN FRANCISCO, CA. More information available from US FCC via Universal Licensing System and Coast Guard Vessel Documentation Center.

Last reported at 2018-Feb-24 14:51 UTC. Time now 2018-Feb-25 03:22 UTC.
Position N 38°02' W 122°08'.

Length 30 m.

Type: Other ship. MMSI: 367419340.

Date/timePositionNaut miles runAvg speedWind from/ knotsBaromVisibWave heightAir tempDewpointWater temp
2018-Feb-24 14:51N 38°02' W 122°08'0 0.0
2018-Feb-24 05:28N 38°02' W 122°08'4 9.3
2018-Feb-24 05:00N 38°04' W 122°13'710.8
2018-Feb-24 04:20N 38°02' W 122°22'410.9
2018-Feb-24 04:00N 37°59' W 122°25'510.3
2018-Feb-24 03:30N 37°54' W 122°25'510.2
2018-Feb-24 03:00N 37°50' W 122°22'3 6.7
2018-Feb-24 02:30N 37°48' W 122°18'1 1.5
2018-Feb-24 02:00N 37°47' W 122°17'1 2.2
2018-Feb-24 01:30N 37°48' W 122°19'0 0.2
2018-Feb-24 01:01N 37°48' W 122°19'0 0.0
2018-Feb-24 00:30N 37°48' W 122°19'0 0.0
2018-Feb-24 00:00N 37°48' W 122°19'4 8.7
2018-Feb-23 23:30N 37°51' W 122°23'4 8.1
2018-Feb-23 23:00N 37°55' W 122°25'2 4.6
2018-Feb-23 22:30N 37°55' W 122°22'0 0.0
2018-Feb-23 22:00N 37°55' W 122°22'0 0.0
2018-Feb-23 21:30N 37°55' W 122°22'0 0.0
2018-Feb-23 21:00N 37°55' W 122°22'0 0.0
2018-Feb-23 20:30N 37°55' W 122°22'0 0.0
2018-Feb-23 20:00N 37°55' W 122°22'0 0.0
2018-Feb-23 19:30N 37°55' W 122°22'0 0.0
2018-Feb-23 19:00N 37°55' W 122°22'0 0.0
2018-Feb-23 18:30N 37°55' W 122°22'1 1.2
2018-Feb-23 18:00N 37°54' W 122°22'1 2.8
2018-Feb-23 17:30N 37°54' W 122°24'1 2.9
2018-Feb-23 17:00N 37°55' W 122°22'0 0.7
2018-Feb-23 16:30N 37°54' W 122°22'2 3.0
2018-Feb-23 16:00N 37°54' W 122°24'2 3.1
2018-Feb-23 15:30N 37°53' W 122°25'2 3.7
2018-Feb-23 15:00N 37°55' W 122°25'1 1.1
2018-Feb-23 14:30N 37°56' W 122°25'0 0.2
2018-Feb-23 14:00N 37°56' W 122°25'2 3.9
2018-Feb-23 13:31N 37°54' W 122°25'0 0.8
2018-Feb-23 13:00N 37°53' W 122°25'2 4.3
2018-Feb-23 12:30N 37°55' W 122°25'0 0.4
2018-Feb-23 12:00N 37°55' W 122°25'2 4.9
2018-Feb-23 11:30N 37°55' W 122°22'0 0.9
2018-Feb-23 11:00N 37°55' W 122°22'1 2.3
2018-Feb-23 10:30N 37°54' W 122°23'4 7.0
2018-Feb-23 10:00N 37°51' W 122°24'3 5.7
2018-Feb-23 09:30N 37°48' W 122°24'0 0.0
2018-Feb-23 09:00N 37°48' W 122°24'0 0.0
2018-Feb-23 08:30N 37°48' W 122°24'0 0.0
2018-Feb-23 08:00N 37°48' W 122°24'0 0.0
2018-Feb-23 07:30N 37°48' W 122°24'0 0.0
2018-Feb-23 07:00N 37°48' W 122°24'0 0.0
2018-Feb-23 06:30N 37°48' W 122°24'0 0.0
2018-Feb-23 06:00N 37°48' W 122°24'0 0.0
2018-Feb-23 05:30N 37°48' W 122°24'0 0.0
2018-Feb-23 05:00N 37°48' W 122°24'0 0.0
2018-Feb-23 04:30N 37°48' W 122°24'0 0.0
2018-Feb-23 04:00N 37°48' W 122°24'0 0.0
2018-Feb-23 03:30N 37°48' W 122°24'0 0.0
2018-Feb-23 03:00N 37°48' W 122°24'0 0.0
2018-Feb-23 02:30N 37°48' W 122°24'1 1.5
2018-Feb-23 02:00N 37°48' W 122°23'3 6.5
2018-Feb-23 01:30N 37°48' W 122°19'0 0.3
2018-Feb-23 01:00N 37°48' W 122°19'2 4.1
2018-Feb-23 00:31N 37°48' W 122°22'3 6.5
2018-Feb-23 00:00N 37°45' W 122°23'0 0.0
2018-Feb-22 23:30N 37°45' W 122°23'0 0.0
2018-Feb-22 23:00N 37°45' W 122°23'0 0.0
2018-Feb-22 22:31N 37°45' W 122°23'2 3.8
2018-Feb-22 22:00N 37°47' W 122°23'713.2
2018-Feb-22 21:30N 37°53' W 122°25'3 5.7
2018-Feb-22 21:00N 37°55' W 122°22'0 0.7
2018-Feb-22 20:30N 37°55' W 122°22'0 0.5
2018-Feb-22 20:00N 37°55' W 122°22'2 3.4
2018-Feb-22 19:30N 37°54' W 122°24'1 1.9
2018-Feb-22 19:00N 37°55' W 122°25'0 0.1
2018-Feb-22 18:30N 37°55' W 122°25'0 0.0
2018-Feb-22 18:00N 37°55' W 122°25'0 0.0
2018-Feb-22 17:30N 37°55' W 122°25'0 0.0
2018-Feb-22 17:00N 37°55' W 122°25'0 0.0
2018-Feb-22 16:30N 37°55' W 122°25'0 0.0
2018-Feb-22 16:00N 37°55' W 122°25'0 0.0
2018-Feb-22 15:30N 37°55' W 122°25'0 0.1
2018-Feb-22 15:00N 37°55' W 122°24'4 8.1
2018-Feb-22 14:30N 37°52' W 122°27'4 7.3
2018-Feb-22 14:00N 37°49' W 122°30'0 0.8
2018-Feb-22 13:30N 37°49' W 122°30'510.0
2018-Feb-22 13:00N 37°51' W 122°25'5 9.3
2018-Feb-22 12:30N 37°55' W 122°27'5 9.1
2018-Feb-22 12:00N 37°60' W 122°25'5 8.8
2018-Feb-22 11:28N 38°03' W 122°21'4 8.2
2018-Feb-22 10:57N 38°04' W 122°15'3 6.6
2018-Feb-22 10:29N 38°03' W 122°11'3 0.1
2018-Feb-20 21:43N 38°02' W 122°08'1 4.3
2018-Feb-20 21:29N 38°02' W 122°09'1 0.1
2018-Feb-20 08:06N 38°02' W 122°08'1 5.5
2018-Feb-20 07:59N 38°02' W 122°09'1 1.2
2018-Feb-20 07:30N 38°02' W 122°08'1 0.0
2018-Feb-18 21:14N 38°02' W 122°09'1 0.1
2018-Feb-18 09:54N 38°02' W 122°08'0 0.1
2018-Feb-18 05:26N 38°02' W 122°08'2 3.0
2018-Feb-18 04:43N 38°03' W 122°10'2 9.0
2018-Feb-18 04:30N 38°04' W 122°12'5 9.6
2018-Feb-18 04:00N 38°03' W 122°19'510.9
2018-Feb-18 03:30N 38°01' W 122°24'5 9.5
2018-Feb-18 03:00N 37°56' W 122°27'5 9.4
2018-Feb-18 02:30N 37°52' W 122°25'611.7
2018-Feb-18 02:00N 37°47' W 122°21'1 2.2
2018-Feb-18 01:30N 37°46' W 122°20'2 3.8
2018-Feb-18 01:00N 37°47' W 122°22'2 3.7
2018-Feb-18 00:30N 37°48' W 122°24'0 0.0
2018-Feb-18 00:00N 37°48' W 122°24'0 0.0
2018-Feb-17 23:30N 37°48' W 122°24'0 0.0
2018-Feb-17 23:00N 37°48' W 122°24'0 0.0
2018-Feb-17 22:30N 37°48' W 122°24'0 0.0
2018-Feb-17 22:00N 37°48' W 122°24'0 0.0
2018-Feb-17 21:30N 37°48' W 122°24'0 0.0
2018-Feb-17 21:00N 37°48' W 122°24'0 0.0
2018-Feb-17 20:30N 37°48' W 122°24'0 0.0
2018-Feb-17 20:00N 37°48' W 122°24'0 0.0
2018-Feb-17 19:30N 37°48' W 122°24'0 0.0
2018-Feb-17 19:00N 37°48' W 122°24'0 0.0
2018-Feb-17 18:30N 37°48' W 122°24'0 0.0
2018-Feb-17 18:00N 37°48' W 122°24'0 0.0
2018-Feb-17 17:30N 37°48' W 122°24'0 0.0
2018-Feb-17 17:00N 37°48' W 122°24'0 0.0
2018-Feb-17 16:30N 37°48' W 122°24'0 0.0
2018-Feb-17 16:00N 37°48' W 122°24'0 0.0
2018-Feb-17 15:30N 37°48' W 122°24'0 0.0
2018-Feb-17 15:00N 37°48' W 122°24'0 0.0
2018-Feb-17 14:30N 37°48' W 122°24'0 0.0
2018-Feb-17 14:00N 37°48' W 122°24'0 0.0
2018-Feb-17 13:30N 37°48' W 122°24'0 0.0
2018-Feb-17 13:00N 37°48' W 122°24'0 0.0
2018-Feb-17 12:30N 37°48' W 122°24'0 0.0
2018-Feb-17 12:00N 37°48' W 122°24'0 0.0
2018-Feb-17 11:30N 37°48' W 122°24'0 0.0
2018-Feb-17 11:00N 37°48' W 122°24'0 0.0
2018-Feb-17 10:30N 37°48' W 122°24'0 0.0
2018-Feb-17 10:00N 37°48' W 122°24'0 0.0
2018-Feb-17 09:30N 37°48' W 122°24'0 0.0
2018-Feb-17 09:00N 37°48' W 122°24'0 0.0
2018-Feb-17 08:30N 37°48' W 122°24'0 0.0
2018-Feb-17 08:00N 37°48' W 122°24'0 0.0
2018-Feb-17 07:30N 37°48' W 122°24'0 0.0
2018-Feb-17 07:00N 37°48' W 122°24'0 0.0
2018-Feb-17 06:30N 37°48' W 122°24'0 0.0
2018-Feb-17 06:00N 37°48' W 122°24'0 0.0
2018-Feb-17 05:30N 37°48' W 122°24'0 0.0
2018-Feb-17 05:00N 37°48' W 122°24'0 0.0
2018-Feb-17 04:30N 37°48' W 122°24'0 0.0
2018-Feb-17 04:00N 37°48' W 122°24'0 0.0
2018-Feb-17 03:30N 37°48' W 122°24'0 0.0
2018-Feb-17 03:00N 37°48' W 122°24'1 2.0
2018-Feb-17 02:30N 37°48' W 122°23'2 3.8
2018-Feb-17 02:00N 37°49' W 122°20'1 1.5
2018-Feb-17 01:30N 37°49' W 122°19'1 1.5
2018-Feb-17 01:01N 37°49' W 122°20'3 5.0
2018-Feb-17 00:30N 37°49' W 122°24'1 1.1
2018-Feb-17 00:00N 37°48' W 122°24'0 0.0
2018-Feb-16 23:30N 37°48' W 122°24'0 0.0
2018-Feb-16 23:00N 37°48' W 122°24'0 0.0
2018-Feb-16 22:30N 37°48' W 122°24'0 0.0
2018-Feb-16 22:00N 37°48' W 122°24'4 7.2
2018-Feb-16 21:30N 37°52' W 122°25'510.4
2018-Feb-16 21:00N 37°57' W 122°26'5 9.6
2018-Feb-16 20:29N 38°01' W 122°23'5 9.3
2018-Feb-16 20:00N 38°03' W 122°18'4 8.9
2018-Feb-16 19:30N 38°03' W 122°12'4 5.8
2018-Feb-16 18:52N 38°02' W 122°08'0 0.0
2018-Feb-16 18:28N 38°02' W 122°08'0 0.2
2018-Feb-16 18:00N 38°02' W 122°08'1 2.5
2018-Feb-16 17:30N 38°02' W 122°10'1 2.4
2018-Feb-16 17:00N 38°02' W 122°08'0 0.0
2018-Feb-16 15:48N 38°02' W 122°08'0 0.0
2018-Feb-16 14:17N 38°02' W 122°08'0 0.0
2018-Feb-16 13:56N 38°02' W 122°08'0 0.0
2018-Feb-16 13:30N 38°02' W 122°08'0 0.0
2018-Feb-16 11:18N 38°02' W 122°08'0 0.1
2018-Feb-16 10:30N 38°02' W 122°08'0 0.9
2018-Feb-16 10:00N 38°02' W 122°08'0 1.0
2018-Feb-16 09:30N 38°02' W 122°08'0 0.5
2018-Feb-16 08:59N 38°02' W 122°08'2 1.2
2018-Feb-16 07:20N 38°03' W 122°06'1 3.8
2018-Feb-16 07:00N 38°02' W 122°07'3 1.5
2018-Feb-16 05:10N 38°03' W 122°11'2 9.4
2018-Feb-16 04:59N 38°04' W 122°13'1 3.0
2018-Feb-16 04:30N 38°04' W 122°14'1 1.0
2018-Feb-16 04:01N 38°04' W 122°14'1 0.1
2018-Feb-15 19:35N 38°04' W 122°13'411.8
2018-Feb-15 19:14N 38°03' W 122°18'310.9
2018-Feb-15 18:55N 38°02' W 122°22'511.3
2018-Feb-15 18:30N 37°58' W 122°26'3 5.4
2018-Feb-15 18:00N 37°56' W 122°25'0 0.0
2018-Feb-15 17:30N 37°56' W 122°25'1 1.6
2018-Feb-15 17:00N 37°55' W 122°25'2 4.6
2018-Feb-15 16:30N 37°53' W 122°25'1 1.9
2018-Feb-15 16:00N 37°52' W 122°26'0 0.3
2018-Feb-15 15:31N 37°53' W 122°26'1 1.7
2018-Feb-15 15:00N 37°53' W 122°25'2 3.9
2018-Feb-15 14:30N 37°55' W 122°25'4 7.2
2018-Feb-15 14:00N 37°59' W 122°26'4 8.5
2018-Feb-15 13:30N 38°02' W 122°22'4 9.0
2018-Feb-15 13:00N 38°03' W 122°17'2 3.7
2018-Feb-15 12:30N 38°04' W 122°14'0 0.0
2018-Feb-15 12:00N 38°04' W 122°14'0 0.4
2018-Feb-15 11:30N 38°04' W 122°15'1 1.8
2018-Feb-15 11:00N 38°04' W 122°16'1 1.8
2018-Feb-15 10:30N 38°03' W 122°15'0 0.0
2018-Feb-15 10:00N 38°03' W 122°15'0 0.0
2018-Feb-15 09:30N 38°03' W 122°15'0 0.0
2018-Feb-15 09:00N 38°03' W 122°15'0 0.0
2018-Feb-15 08:30N 38°03' W 122°15'0 0.0
2018-Feb-15 08:00N 38°03' W 122°15'0 0.0
2018-Feb-15 07:30N 38°03' W 122°15'0 0.0
2018-Feb-15 07:00N 38°03' W 122°15'0 0.0
2018-Feb-15 06:30N 38°03' W 122°15'0 0.0
2018-Feb-15 06:00N 38°03' W 122°15'0 0.0
2018-Feb-15 05:30N 38°03' W 122°15'0 0.0
2018-Feb-15 05:00N 38°03' W 122°15'0 0.0
2018-Feb-15 04:29N 38°03' W 122°15'0 0.0
2018-Feb-15 03:58N 38°03' W 122°15'0 0.0
2018-Feb-15 03:30N 38°03' W 122°15'0 0.0
2018-Feb-15 02:58N 38°03' W 122°15'2 3.9
2018-Feb-15 02:30N 38°03' W 122°17'6 7.8
2018-Feb-15 01:45N 38°01' W 122°24'2 8.2
2018-Feb-15 01:29N 37°59' W 122°25'4 8.3
2018-Feb-15 01:00N 37°55' W 122°25'4 8.7
2018-Feb-15 00:30N 37°51' W 122°23'5 9.9
2018-Feb-15 00:00N 37°48' W 122°19'1 1.3
2018-Feb-14 23:30N 37°48' W 122°18'0 0.5
2018-Feb-14 23:01N 37°48' W 122°18'2 4.0
2018-Feb-14 22:30N 37°48' W 122°21'3 5.2
2018-Feb-14 22:00N 37°48' W 122°24'0 0.0
2018-Feb-14 21:30N 37°48' W 122°24'0 0.0
2018-Feb-14 21:00N 37°48' W 122°24'0 0.0
2018-Feb-14 20:30N 37°48' W 122°24'0 0.0
2018-Feb-14 20:00N 37°48' W 122°24'0 0.0
2018-Feb-14 19:30N 37°48' W 122°24'0 0.0
2018-Feb-14 19:00N 37°48' W 122°24'0 0.0
2018-Feb-14 18:30N 37°48' W 122°24'0 0.0
2018-Feb-14 18:00N 37°48' W 122°24'0 0.0
2018-Feb-14 17:30N 37°48' W 122°24'0 0.0
2018-Feb-14 17:00N 37°48' W 122°24'0 0.0
2018-Feb-14 16:30N 37°48' W 122°24'1 1.8
2018-Feb-14 16:00N 37°48' W 122°23'3 6.4
2018-Feb-14 15:30N 37°48' W 122°19'1 1.3
2018-Feb-14 15:01N 37°48' W 122°18'  
Track history (hours):
 
Tides and Currents Weather Stations Pressure Air Temp Water Temp Dewpoint Dewpoint Depression Visibility Wind Speed Wind Dir Waves Ship Positions

Delta Cathryn

Owner: BAYDELTA MARITIME, SAN FRANCISCO, CA. More information available from US FCC via Universal Licensing System and Coast Guard Vessel Documentation Center.

Last reported at 2018-Feb-24 14:51 UTC. Time now 2018-Feb-25 03:22 UTC.
Position N 38°02' W 122°08'.

Length 30 m.

Type: Other ship. MMSI: 367419340.

Date/timePositionNaut miles runAvg speedWind from/ knotsBaromVisibWave heightAir tempDewpointWater temp
2018-Feb-24 14:51N 38°02' W 122°08'0 0.0
2018-Feb-24 05:28N 38°02' W 122°08'4 9.3
2018-Feb-24 05:00N 38°04' W 122°13'710.8
2018-Feb-24 04:20N 38°02' W 122°22'410.9
2018-Feb-24 04:00N 37°59' W 122°25'510.3
2018-Feb-24 03:30N 37°54' W 122°25'510.2
2018-Feb-24 03:00N 37°50' W 122°22'3 6.7
2018-Feb-24 02:30N 37°48' W 122°18'1 1.5
2018-Feb-24 02:00N 37°47' W 122°17'1 2.2
2018-Feb-24 01:30N 37°48' W 122°19'0 0.2
2018-Feb-24 01:01N 37°48' W 122°19'0 0.0
2018-Feb-24 00:30N 37°48' W 122°19'0 0.0
2018-Feb-24 00:00N 37°48' W 122°19'4 8.7
2018-Feb-23 23:30N 37°51' W 122°23'4 8.1
2018-Feb-23 23:00N 37°55' W 122°25'2 4.6
2018-Feb-23 22:30N 37°55' W 122°22'0 0.0
2018-Feb-23 22:00N 37°55' W 122°22'0 0.0
2018-Feb-23 21:30N 37°55' W 122°22'0 0.0
2018-Feb-23 21:00N 37°55' W 122°22'0 0.0
2018-Feb-23 20:30N 37°55' W 122°22'0 0.0
2018-Feb-23 20:00N 37°55' W 122°22'0 0.0
2018-Feb-23 19:30N 37°55' W 122°22'0 0.0
2018-Feb-23 19:00N 37°55' W 122°22'0 0.0
2018-Feb-23 18:30N 37°55' W 122°22'1 1.2
2018-Feb-23 18:00N 37°54' W 122°22'1 2.8
2018-Feb-23 17:30N 37°54' W 122°24'1 2.9
2018-Feb-23 17:00N 37°55' W 122°22'0 0.7
2018-Feb-23 16:30N 37°54' W 122°22'2 3.0
2018-Feb-23 16:00N 37°54' W 122°24'2 3.1
2018-Feb-23 15:30N 37°53' W 122°25'2 3.7
2018-Feb-23 15:00N 37°55' W 122°25'1 1.1
2018-Feb-23 14:30N 37°56' W 122°25'0 0.2
2018-Feb-23 14:00N 37°56' W 122°25'2 3.9
2018-Feb-23 13:31N 37°54' W 122°25'0 0.8
2018-Feb-23 13:00N 37°53' W 122°25'2 4.3
2018-Feb-23 12:30N 37°55' W 122°25'0 0.4
2018-Feb-23 12:00N 37°55' W 122°25'2 4.9
2018-Feb-23 11:30N 37°55' W 122°22'0 0.9
2018-Feb-23 11:00N 37°55' W 122°22'1 2.3
2018-Feb-23 10:30N 37°54' W 122°23'4 7.0
2018-Feb-23 10:00N 37°51' W 122°24'3 5.7
2018-Feb-23 09:30N 37°48' W 122°24'0 0.0
2018-Feb-23 09:00N 37°48' W 122°24'0 0.0
2018-Feb-23 08:30N 37°48' W 122°24'0 0.0
2018-Feb-23 08:00N 37°48' W 122°24'0 0.0
2018-Feb-23 07:30N 37°48' W 122°24'0 0.0
2018-Feb-23 07:00N 37°48' W 122°24'0 0.0
2018-Feb-23 06:30N 37°48' W 122°24'0 0.0
2018-Feb-23 06:00N 37°48' W 122°24'0 0.0
2018-Feb-23 05:30N 37°48' W 122°24'0 0.0
2018-Feb-23 05:00N 37°48' W 122°24'0 0.0
2018-Feb-23 04:30N 37°48' W 122°24'0 0.0
2018-Feb-23 04:00N 37°48' W 122°24'0 0.0
2018-Feb-23 03:30N 37°48' W 122°24'0 0.0
2018-Feb-23 03:00N 37°48' W 122°24'0 0.0
2018-Feb-23 02:30N 37°48' W 122°24'1 1.5
2018-Feb-23 02:00N 37°48' W 122°23'3 6.5
2018-Feb-23 01:30N 37°48' W 122°19'0 0.3
2018-Feb-23 01:00N 37°48' W 122°19'2 4.1
2018-Feb-23 00:31N 37°48' W 122°22'3 6.5
2018-Feb-23 00:00N 37°45' W 122°23'0 0.0
2018-Feb-22 23:30N 37°45' W 122°23'0 0.0
2018-Feb-22 23:00N 37°45' W 122°23'0 0.0
2018-Feb-22 22:31N 37°45' W 122°23'2 3.8
2018-Feb-22 22:00N 37°47' W 122°23'713.2
2018-Feb-22 21:30N 37°53' W 122°25'3 5.7
2018-Feb-22 21:00N 37°55' W 122°22'0 0.7
2018-Feb-22 20:30N 37°55' W 122°22'0 0.5
2018-Feb-22 20:00N 37°55' W 122°22'2 3.4
2018-Feb-22 19:30N 37°54' W 122°24'1 1.9
2018-Feb-22 19:00N 37°55' W 122°25'0 0.1
2018-Feb-22 18:30N 37°55' W 122°25'0 0.0
2018-Feb-22 18:00N 37°55' W 122°25'0 0.0
2018-Feb-22 17:30N 37°55' W 122°25'0 0.0
2018-Feb-22 17:00N 37°55' W 122°25'0 0.0
2018-Feb-22 16:30N 37°55' W 122°25'0 0.0
2018-Feb-22 16:00N 37°55' W 122°25'0 0.0
2018-Feb-22 15:30N 37°55' W 122°25'0 0.1
2018-Feb-22 15:00N 37°55' W 122°24'4 8.1
2018-Feb-22 14:30N 37°52' W 122°27'4 7.3
2018-Feb-22 14:00N 37°49' W 122°30'0 0.8
2018-Feb-22 13:30N 37°49' W 122°30'510.0
2018-Feb-22 13:00N 37°51' W 122°25'5 9.3
2018-Feb-22 12:30N 37°55' W 122°27'5 9.1
2018-Feb-22 12:00N 37°60' W 122°25'5 8.8
2018-Feb-22 11:28N 38°03' W 122°21'4 8.2
2018-Feb-22 10:57N 38°04' W 122°15'3 6.6
2018-Feb-22 10:29N 38°03' W 122°11'3 0.1
2018-Feb-20 21:43N 38°02' W 122°08'1 4.3
2018-Feb-20 21:29N 38°02' W 122°09'1 0.1
2018-Feb-20 08:06N 38°02' W 122°08'1 5.5
2018-Feb-20 07:59N 38°02' W 122°09'1 1.2
2018-Feb-20 07:30N 38°02' W 122°08'1 0.0
2018-Feb-18 21:14N 38°02' W 122°09'1 0.1
2018-Feb-18 09:54N 38°02' W 122°08'0 0.1
2018-Feb-18 05:26N 38°02' W 122°08'2 3.0
2018-Feb-18 04:43N 38°03' W 122°10'2 9.0
2018-Feb-18 04:30N 38°04' W 122°12'5 9.6
2018-Feb-18 04:00N 38°03' W 122°19'510.9
2018-Feb-18 03:30N 38°01' W 122°24'5 9.5
2018-Feb-18 03:00N 37°56' W 122°27'5 9.4
2018-Feb-18 02:30N 37°52' W 122°25'611.7
2018-Feb-18 02:00N 37°47' W 122°21'1 2.2
2018-Feb-18 01:30N 37°46' W 122°20'2 3.8
2018-Feb-18 01:00N 37°47' W 122°22'2 3.7
2018-Feb-18 00:30N 37°48' W 122°24'0 0.0
2018-Feb-18 00:00N 37°48' W 122°24'0 0.0
2018-Feb-17 23:30N 37°48' W 122°24'0 0.0
2018-Feb-17 23:00N 37°48' W 122°24'0 0.0
2018-Feb-17 22:30N 37°48' W 122°24'0 0.0
2018-Feb-17 22:00N 37°48' W 122°24'0 0.0
2018-Feb-17 21:30N 37°48' W 122°24'0 0.0
2018-Feb-17 21:00N 37°48' W 122°24'0 0.0
2018-Feb-17 20:30N 37°48' W 122°24'0 0.0
2018-Feb-17 20:00N 37°48' W 122°24'0 0.0
2018-Feb-17 19:30N 37°48' W 122°24'0 0.0
2018-Feb-17 19:00N 37°48' W 122°24'0 0.0
2018-Feb-17 18:30N 37°48' W 122°24'0 0.0
2018-Feb-17 18:00N 37°48' W 122°24'0 0.0
2018-Feb-17 17:30N 37°48' W 122°24'0 0.0
2018-Feb-17 17:00N 37°48' W 122°24'0 0.0
2018-Feb-17 16:30N 37°48' W 122°24'0 0.0
2018-Feb-17 16:00N 37°48' W 122°24'0 0.0
2018-Feb-17 15:30N 37°48' W 122°24'0 0.0
2018-Feb-17 15:00N 37°48' W 122°24'0 0.0
2018-Feb-17 14:30N 37°48' W 122°24'0 0.0
2018-Feb-17 14:00N 37°48' W 122°24'0 0.0
2018-Feb-17 13:30N 37°48' W 122°24'0 0.0
2018-Feb-17 13:00N 37°48' W 122°24'0 0.0
2018-Feb-17 12:30N 37°48' W 122°24'0 0.0
2018-Feb-17 12:00N 37°48' W 122°24'0 0.0
2018-Feb-17 11:30N 37°48' W 122°24'0 0.0
2018-Feb-17 11:00N 37°48' W 122°24'0 0.0
2018-Feb-17 10:30N 37°48' W 122°24'0 0.0
2018-Feb-17 10:00N 37°48' W 122°24'0 0.0
2018-Feb-17 09:30N 37°48' W 122°24'0 0.0
2018-Feb-17 09:00N 37°48' W 122°24'0 0.0
2018-Feb-17 08:30N 37°48' W 122°24'0 0.0
2018-Feb-17 08:00N 37°48' W 122°24'0 0.0
2018-Feb-17 07:30N 37°48' W 122°24'0 0.0
2018-Feb-17 07:00N 37°48' W 122°24'0 0.0
2018-Feb-17 06:30N 37°48' W 122°24'0 0.0
2018-Feb-17 06:00N 37°48' W 122°24'0 0.0
2018-Feb-17 05:30N 37°48' W 122°24'0 0.0
2018-Feb-17 05:00N 37°48' W 122°24'0 0.0
2018-Feb-17 04:30N 37°48' W 122°24'0 0.0
2018-Feb-17 04:00N 37°48' W 122°24'0 0.0
2018-Feb-17 03:30N 37°48' W 122°24'0 0.0
2018-Feb-17 03:00N 37°48' W 122°24'1 2.0
2018-Feb-17 02:30N 37°48' W 122°23'2 3.8
2018-Feb-17 02:00N 37°49' W 122°20'1 1.5
2018-Feb-17 01:30N 37°49' W 122°19'1 1.5
2018-Feb-17 01:01N 37°49' W 122°20'3 5.0
2018-Feb-17 00:30N 37°49' W 122°24'1 1.1
2018-Feb-17 00:00N 37°48' W 122°24'0 0.0
2018-Feb-16 23:30N 37°48' W 122°24'0 0.0
2018-Feb-16 23:00N 37°48' W 122°24'0 0.0
2018-Feb-16 22:30N 37°48' W 122°24'0 0.0
2018-Feb-16 22:00N 37°48' W 122°24'4 7.2
2018-Feb-16 21:30N 37°52' W 122°25'510.4
2018-Feb-16 21:00N 37°57' W 122°26'5 9.6
2018-Feb-16 20:29N 38°01' W 122°23'5 9.3
2018-Feb-16 20:00N 38°03' W 122°18'4 8.9
2018-Feb-16 19:30N 38°03' W 122°12'4 5.8
2018-Feb-16 18:52N 38°02' W 122°08'0 0.0
2018-Feb-16 18:28N 38°02' W 122°08'0 0.2
2018-Feb-16 18:00N 38°02' W 122°08'1 2.5
2018-Feb-16 17:30N 38°02' W 122°10'1 2.4
2018-Feb-16 17:00N 38°02' W 122°08'0 0.0
2018-Feb-16 15:48N 38°02' W 122°08'0 0.0
2018-Feb-16 14:17N 38°02' W 122°08'0 0.0
2018-Feb-16 13:56N 38°02' W 122°08'0 0.0
2018-Feb-16 13:30N 38°02' W 122°08'0 0.0
2018-Feb-16 11:18N 38°02' W 122°08'0 0.1
2018-Feb-16 10:30N 38°02' W 122°08'0 0.9
2018-Feb-16 10:00N 38°02' W 122°08'0 1.0
2018-Feb-16 09:30N 38°02' W 122°08'0 0.5
2018-Feb-16 08:59N 38°02' W 122°08'2 1.2
2018-Feb-16 07:20N 38°03' W 122°06'1 3.8
2018-Feb-16 07:00N 38°02' W 122°07'3 1.5
2018-Feb-16 05:10N 38°03' W 122°11'2 9.4
2018-Feb-16 04:59N 38°04' W 122°13'1 3.0
2018-Feb-16 04:30N 38°04' W 122°14'1 1.0
2018-Feb-16 04:01N 38°04' W 122°14'1 0.1
2018-Feb-15 19:35N 38°04' W 122°13'411.8
2018-Feb-15 19:14N 38°03' W 122°18'310.9
2018-Feb-15 18:55N 38°02' W 122°22'511.3
2018-Feb-15 18:30N 37°58' W 122°26'3 5.4
2018-Feb-15 18:00N 37°56' W 122°25'0 0.0
2018-Feb-15 17:30N 37°56' W 122°25'1 1.6
2018-Feb-15 17:00N 37°55' W 122°25'2 4.6
2018-Feb-15 16:30N 37°53' W 122°25'1 1.9
2018-Feb-15 16:00N 37°52' W 122°26'0 0.3
2018-Feb-15 15:31N 37°53' W 122°26'1 1.7
2018-Feb-15 15:00N 37°53' W 122°25'2 3.9
2018-Feb-15 14:30N 37°55' W 122°25'4 7.2
2018-Feb-15 14:00N 37°59' W 122°26'4 8.5
2018-Feb-15 13:30N 38°02' W 122°22'4 9.0
2018-Feb-15 13:00N 38°03' W 122°17'2 3.7
2018-Feb-15 12:30N 38°04' W 122°14'0 0.0
2018-Feb-15 12:00N 38°04' W 122°14'0 0.4
2018-Feb-15 11:30N 38°04' W 122°15'1 1.8
2018-Feb-15 11:00N 38°04' W 122°16'1 1.8
2018-Feb-15 10:30N 38°03' W 122°15'0 0.0
2018-Feb-15 10:00N 38°03' W 122°15'0 0.0
2018-Feb-15 09:30N 38°03' W 122°15'0 0.0
2018-Feb-15 09:00N 38°03' W 122°15'0 0.0
2018-Feb-15 08:30N 38°03' W 122°15'0 0.0
2018-Feb-15 08:00N 38°03' W 122°15'0 0.0
2018-Feb-15 07:30N 38°03' W 122°15'0 0.0
2018-Feb-15 07:00N 38°03' W 122°15'0 0.0
2018-Feb-15 06:30N 38°03' W 122°15'0 0.0
2018-Feb-15 06:00N 38°03' W 122°15'0 0.0
2018-Feb-15 05:30N 38°03' W 122°15'0 0.0
2018-Feb-15 05:00N 38°03' W 122°15'0 0.0
2018-Feb-15 04:29N 38°03' W 122°15'0 0.0
2018-Feb-15 03:58N 38°03' W 122°15'0 0.0
2018-Feb-15 03:30N 38°03' W 122°15'0 0.0
2018-Feb-15 02:58N 38°03' W 122°15'2 3.9
2018-Feb-15 02:30N 38°03' W 122°17'6 7.8
2018-Feb-15 01:45N 38°01' W 122°24'2 8.2
2018-Feb-15 01:29N 37°59' W 122°25'4 8.3
2018-Feb-15 01:00N 37°55' W 122°25'4 8.7
2018-Feb-15 00:30N 37°51' W 122°23'5 9.9
2018-Feb-15 00:00N 37°48' W 122°19'1 1.3
2018-Feb-14 23:30N 37°48' W 122°18'0 0.5
2018-Feb-14 23:01N 37°48' W 122°18'2 4.0
2018-Feb-14 22:30N 37°48' W 122°21'3 5.2
2018-Feb-14 22:00N 37°48' W 122°24'0 0.0
2018-Feb-14 21:30N 37°48' W 122°24'0 0.0
2018-Feb-14 21:00N 37°48' W 122°24'0 0.0
2018-Feb-14 20:30N 37°48' W 122°24'0 0.0
2018-Feb-14 20:00N 37°48' W 122°24'0 0.0
2018-Feb-14 19:30N 37°48' W 122°24'0 0.0
2018-Feb-14 19:00N 37°48' W 122°24'0 0.0
2018-Feb-14 18:30N 37°48' W 122°24'0 0.0
2018-Feb-14 18:00N 37°48' W 122°24'0 0.0
2018-Feb-14 17:30N 37°48' W 122°24'0 0.0
2018-Feb-14 17:00N 37°48' W 122°24'0 0.0
2018-Feb-14 16:30N 37°48' W 122°24'1 1.8
2018-Feb-14 16:00N 37°48' W 122°23'3 6.4
2018-Feb-14 15:30N 37°48' W 122°19'1 1.3
2018-Feb-14 15:01N 37°48' W 122°18'  

Dump ship's entire track history